Time;durP1;ratioP1;P1;durP2;ratioP2;P2;SDS_P1;SDS_P2;PMS_P1;PMS_P2;Temp;Humidity;BMP_temperature;BMP_pressure;BME280_temperature;BME280_humidity;BME280_pressure;Samples;Min_cycle;Max_cycle;Signal;HPM_P1;HPM_P2
2024/01/06 00:00:10;;;;;;;63.58;31.27;;;;;;;7.27;71.50;100200.31;5021684;27;100492;-70
2024/01/06 00:02:38;;;;;;;66.05;32.20;;;;;;;7.41;71.09;100195.50;5024904;27;97021;-69
2024/01/06 00:05:05;;;;;;;65.97;30.42;;;;;;;7.25;71.59;100199.50;5024880;27;98759;-73
2024/01/06 00:07:32;;;;;;;70.15;31.35;;;;;;;7.40;71.51;100206.06;5020406;27;97929;-72
2024/01/06 00:09:58;;;;;;;68.20;30.52;;;;;;;7.36;70.92;100204.41;5017624;27;101048;-72
2024/01/06 00:12:26;;;;;;;69.95;31.00;;;;;;;7.22;71.19;100202.19;5021671;27;96751;-73
2024/01/06 00:15:02;;;;;;;64.45;30.60;;;;;;;7.31;71.16;100204.56;5019249;27;96970;-71
2024/01/06 00:17:28;;;;;;;63.73;30.07;;;;;;;7.24;71.27;100205.66;5023313;27;98053;-73
2024/01/06 00:20:04;;;;;;;68.57;30.85;;;;;;;7.28;71.79;100206.44;5027306;27;97754;-71
2024/01/06 00:22:31;;;;;;;51.43;23.60;;;;;;;7.52;70.50;100208.28;5021113;27;97728;-72
2024/01/06 00:24:57;;;;;;;67.22;30.63;;;;;;;7.37;71.10;100206.13;5025095;27;97115;-72
2024/01/06 00:27:24;;;;;;;64.20;29.83;;;;;;;7.33;70.70;100209.78;5026711;27;98165;-72
2024/01/06 00:29:53;;;;;;;64.25;30.17;;;;;;;7.01;71.99;100206.34;5023341;27;100242;-72
2024/01/06 00:32:20;;;;;;;66.57;29.08;;;;;;;7.13;71.55;100200.72;5021860;27;96752;-70
2024/01/06 00:34:47;;;;;;;64.60;30.75;;;;;;;7.24;71.37;100204.78;5027475;27;96733;-71
2024/01/06 00:37:15;;;;;;;62.47;29.10;;;;;;;7.14;71.65;100207.72;5026345;27;101005;-70
2024/01/06 00:39:41;;;;;;;60.92;28.80;;;;;;;7.28;71.14;100216.94;5025121;27;99028;-71
2024/01/06 00:42:07;;;;;;;64.03;28.27;;;;;;;7.44;70.40;100212.94;5031040;27;97110;-72
2024/01/06 00:44:35;;;;;;;59.55;28.00;;;;;;;7.03;71.36;100212.41;5023007;27;97191;-72
2024/01/06 00:47:02;;;;;;;65.00;28.73;;;;;;;7.15;71.19;100217.28;5019303;27;99200;-70
2024/01/06 00:49:28;;;;;;;58.80;28.33;;;;;;;7.25;71.42;100225.78;5017014;27;97492;-71
2024/01/06 00:51:55;;;;;;;63.55;28.38;;;;;;;7.15;70.98;100222.53;5023763;27;96748;-71
2024/01/06 00:54:22;;;;;;;58.95;27.95;;;;;;;7.05;71.18;100229.00;5019756;27;97073;-71
2024/01/06 00:56:49;;;;;;;62.40;27.15;;;;;;;7.00;71.30;100227.41;5026369;27;98806;-71
2024/01/06 00:59:15;;;;;;;64.53;28.27;;;;;;;7.16;70.96;100218.16;5019221;27;100449;-71
2024/01/06 01:01:41;;;;;;;61.88;28.23;;;;;;;7.28;70.95;100224.84;5022663;27;97171;-71
2024/01/06 01:04:08;;;;;;;56.70;26.17;;;;;;;7.26;70.77;100222.25;5026387;27;96735;-71
2024/01/06 01:06:37;;;;;;;59.17;26.65;;;;;;;7.01;71.36;100224.75;5016710;27;99031;-73
2024/01/06 01:09:04;;;;;;;58.20;27.25;;;;;;;7.07;71.30;100236.84;5014475;27;98841;-71
2024/01/06 01:11:32;;;;;;;57.47;27.17;;;;;;;7.17;71.38;100235.66;5024852;27;96843;-71
2024/01/06 01:13:59;;;;;;;56.75;27.38;;;;;;;7.05;70.90;100238.63;5027151;27;96904;-71
2024/01/06 01:16:26;;;;;;;60.47;27.73;;;;;;;7.25;70.96;100244.16;5022376;27;99175;-72
2024/01/06 01:18:52;;;;;;;62.25;26.92;;;;;;;7.42;70.15;100248.91;5024158;27;101522;-70
2024/01/06 01:21:19;;;;;;;62.35;28.50;;;;;;;7.27;70.52;100247.63;5026439;27;97192;-70
2024/01/06 01:23:45;;;;;;;58.92;27.70;;;;;;;7.49;70.02;100253.06;5016937;27;96719;-69
2024/01/06 01:26:12;;;;;;;58.95;27.45;;;;;;;7.48;69.53;100256.63;5029655;27;98910;-70
2024/01/06 01:28:40;;;;;;;57.75;28.35;;;;;;;7.30;70.05;100257.16;5029238;27;99649;-71
2024/01/06 01:31:07;;;;;;;53.20;25.90;;;;;;;7.51;69.02;100252.13;5019489;27;97140;-70
2024/01/06 01:33:34;;;;;;;57.78;25.58;;;;;;;7.31;68.95;100253.63;5022897;27;97621;-71
2024/01/06 01:36:00;;;;;;;56.20;25.50;;;;;;;7.32;69.72;100253.59;5029039;27;99179;-70
2024/01/06 01:38:26;;;;;;;58.22;26.38;;;;;;;7.32;69.97;100248.34;5029061;27;99147;-70
2024/01/06 01:40:53;;;;;;;56.10;25.92;;;;;;;7.09;70.23;100256.03;5024629;27;97044;-70
2024/01/06 01:43:20;;;;;;;60.42;27.42;;;;;;;6.97;70.79;100251.13;5029703;27;97141;-70
2024/01/06 01:45:51;;;;;;;59.05;27.00;;;;;;;7.04;70.76;100257.94;5026720;27;98967;-69
2024/01/06 01:48:18;;;;;;;55.50;26.80;;;;;;;7.05;71.11;100257.03;5024472;27;98163;-69
2024/01/06 01:50:44;;;;;;;50.97;26.13;;;;;;;6.91;71.00;100260.03;5024361;27;97059;-69
2024/01/06 01:53:11;;;;;;;56.72;26.63;;;;;;;6.97;71.16;100253.75;5029180;27;96778;-69
2024/01/06 01:55:38;;;;;;;53.60;25.52;;;;;;;6.77;71.69;100262.19;5029438;27;98189;-69
2024/01/06 01:58:05;;;;;;;53.83;24.65;;;;;;;7.15;70.70;100263.75;5022006;27;98151;-75
2024/01/06 02:00:32;;;;;;;55.47;25.98;;;;;;;6.97;71.30;100266.88;5020578;27;97212;-74
2024/01/06 02:03:00;;;;;;;64.60;26.20;;;;;;;6.92;71.12;100264.41;5023665;27;96776;-73
2024/01/06 02:05:27;;;;;;;57.35;25.42;;;;;;;6.97;71.20;100270.38;5022133;27;98779;-74
2024/01/06 02:07:53;;;;;;;55.22;25.75;;;;;;;6.77;71.27;100268.31;5025295;27;99586;-75
2024/01/06 02:10:20;;;;;;;55.58;23.95;;;;;;;6.94;71.42;100267.00;5021394;27;97407;-75
2024/01/06 02:12:46;;;;;;;53.40;25.60;;;;;;;6.83;71.80;100276.94;5025737;27;97418;-75
2024/01/06 02:15:12;;;;;;;58.22;25.55;;;;;;;7.09;71.19;100275.28;5028365;27;99499;-75
2024/01/06 02:17:39;;;;;;;57.13;25.60;;;;;;;6.79;71.31;100273.53;5019775;27;98784;-75
2024/01/06 02:20:09;;;;;;;56.30;25.35;;;;;;;6.94;71.10;100275.72;5023749;27;97186;-75
2024/01/06 02:22:38;;;;;;;55.20;24.38;;;;;;;6.79;71.67;100279.63;5026877;27;96911;-75
2024/01/06 02:25:12;;;;;;;48.67;24.17;;;;;;;6.98;71.15;100273.88;5018900;27;98844;-72
2024/01/06 02:27:38;;;;;;;51.78;24.25;;;;;;;6.96;71.10;100278.28;5024807;27;98699;-72
2024/01/06 02:30:06;;;;;;;48.25;24.23;;;;;;;7.02;70.72;100271.09;5019047;27;96698;-72
2024/01/06 02:32:33;;;;;;;59.50;25.05;;;;;;;7.24;69.92;100273.13;5025388;27;98799;-72
2024/01/06 02:34:59;;;;;;;52.70;23.83;;;;;;;7.12;70.05;100282.22;5022573;27;99165;-73
2024/01/06 02:37:25;;;;;;;51.80;24.50;;;;;;;7.34;69.53;100283.34;5021004;27;99290;-72
2024/01/06 02:39:53;;;;;;;59.97;27.10;;;;;;;7.09;70.00;100284.91;5019414;27;97489;-72
2024/01/06 02:42:20;;;;;;;55.55;24.88;;;;;;;7.04;70.67;100289.44;5029501;27;96763;-72
2024/01/06 02:44:46;;;;;;;56.63;25.30;;;;;;;7.11;70.53;100302.38;5016101;27;98901;-73
2024/01/06 02:47:13;;;;;;;55.28;23.65;;;;;;;7.17;69.99;100296.94;5015055;27;99082;-74
2024/01/06 02:49:39;;;;;;;54.33;24.33;;;;;;;6.93;70.63;100302.03;5020986;27;97433;-74
2024/01/06 02:52:06;;;;;;;57.80;25.25;;;;;;;7.13;69.86;100300.56;5017989;27;96787;-74
2024/01/06 02:54:32;;;;;;;56.63;23.15;;;;;;;6.95;70.37;100294.97;5024660;27;98986;-74
2024/01/06 02:57:00;;;;;;;54.30;24.33;;;;;;;6.86;70.61;100295.22;5014904;27;99229;-74
2024/01/06 02:59:26;;;;;;;56.30;24.25;;;;;;;6.98;70.26;100297.50;5026899;28;97161;-74
2024/01/06 03:01:53;;;;;;;52.17;23.90;;;;;;;6.99;69.92;100296.59;5028103;27;96883;-73
2024/01/06 03:04:19;;;;;;;54.28;24.10;;;;;;;6.85;70.54;100301.38;5023354;27;99461;-74
2024/01/06 03:06:51;;;;;;;48.15;22.70;;;;;;;6.84;70.46;100297.03;5018476;27;99184;-74
2024/01/06 03:09:19;;;;;;;61.55;25.08;;;;;;;6.91;70.63;100303.84;5022698;27;96891;-73
2024/01/06 03:11:45;;;;;;;53.72;23.63;;;;;;;7.10;69.75;100305.03;5022832;27;97038;-73
2024/01/06 03:14:13;;;;;;;52.58;24.20;;;;;;;7.26;69.19;100298.47;5024982;27;98885;-74
2024/01/06 03:16:39;;;;;;;51.40;23.77;;;;;;;7.09;69.53;100308.56;5016953;27;98845;-74
2024/01/06 03:19:05;;;;;;;51.80;25.17;;;;;;;6.83;70.33;100314.53;5018032;27;96921;-74
2024/01/06 03:21:32;;;;;;;56.60;24.73;;;;;;;7.11;69.79;100314.66;5018448;27;97213;-74
2024/01/06 03:23:58;;;;;;;58.70;26.15;;;;;;;7.04;69.33;100307.84;5017973;27;99092;-74
2024/01/06 03:26:24;;;;;;;54.85;25.02;;;;;;;7.01;69.82;100302.69;5013469;27;99407;-75
2024/01/06 03:28:51;;;;;;;59.05;24.83;;;;;;;7.03;69.39;100306.13;5016813;27;97459;-73
2024/01/06 03:31:18;;;;;;;55.53;24.92;;;;;;;6.87;70.15;100310.09;5020444;27;97240;-73
2024/01/06 03:33:45;;;;;;;56.85;24.20;;;;;;;6.95;69.87;100310.75;5022125;27;98909;-74
2024/01/06 03:36:13;;;;;;;59.38;25.98;;;;;;;6.94;70.34;100319.53;5011824;27;99276;-74
2024/01/06 03:38:39;;;;;;;54.33;23.98;;;;;;;6.86;70.09;100329.38;5017079;27;97214;-74
2024/01/06 03:41:06;;;;;;;53.35;24.83;;;;;;;7.12;70.21;100335.63;5019526;27;97434;-75
2024/01/06 03:43:32;;;;;;;58.75;24.55;;;;;;;7.27;69.22;100329.09;5023096;27;99260;-75
2024/01/06 03:46:00;;;;;;;57.58;24.15;;;;;;;7.00;69.61;100341.22;5017675;27;99615;-74
2024/01/06 03:48:27;;;;;;;57.15;26.00;;;;;;;7.09;69.55;100329.59;5018731;27;96716;-75
2024/01/06 03:50:54;;;;;;;57.03;25.23;;;;;;;7.15;69.66;100329.44;5022007;27;97586;-74
2024/01/06 03:53:21;;;;;;;58.55;25.00;;;;;;;6.92;70.30;100335.31;5019596;27;98281;-74
2024/01/06 03:55:47;;;;;;;59.22;25.42;;;;;;;6.92;70.34;100337.06;5023193;27;99195;-75
2024/01/06 03:58:13;;;;;;;60.33;25.05;;;;;;;6.98;70.09;100331.66;5024825;27;96760;-74
2024/01/06 04:00:40;;;;;;;65.38;27.33;;;;;;;6.94;70.35;100336.16;5023683;27;97279;-74
2024/01/06 04:03:07;;;;;;;56.40;24.83;;;;;;;6.83;70.71;100342.59;5027527;27;97241;-75
2024/01/06 04:05:35;;;;;;;60.35;26.40;;;;;;;7.08;69.78;100335.78;5026673;27;98918;-75
2024/01/06 04:08:01;;;;;;;59.90;25.17;;;;;;;6.92;70.20;100344.97;5025751;27;101217;-74
2024/01/06 04:10:27;;;;;;;60.50;26.33;;;;;;;6.92;70.36;100342.34;5019739;27;97433;-74
2024/01/06 04:12:53;;;;;;;55.42;25.10;;;;;;;6.91;70.69;100349.34;5022029;28;99330;-74
2024/01/06 04:15:19;;;;;;;61.05;26.10;;;;;;;6.72;71.31;100350.72;5018475;27;98746;-74
2024/01/06 04:17:49;;;;;;;60.85;25.92;;;;;;;6.78;71.12;100354.06;5026649;27;96926;-75
2024/01/06 04:20:15;;;;;;;59.55;26.02;;;;;;;6.89;70.66;100358.19;5018527;27;96971;-73
2024/01/06 04:22:44;;;;;;;58.58;25.67;;;;;;;6.82;71.16;100372.38;5023666;27;98718;-74
2024/01/06 04:25:11;;;;;;;55.42;25.58;;;;;;;6.89;70.98;100369.56;5024393;27;99133;-75
2024/01/06 04:27:37;;;;;;;58.58;26.10;;;;;;;6.77;71.03;100365.47;5022769;27;97848;-75
2024/01/06 04:30:04;;;;;;;63.83;26.92;;;;;;;6.67;71.60;100369.25;5025274;27;97030;-75
2024/01/06 04:32:30;;;;;;;59.63;26.50;;;;;;;6.97;70.99;100377.22;5026950;27;98881;-75
2024/01/06 04:34:57;;;;;;;54.00;26.00;;;;;;;6.98;70.64;100384.19;5023480;27;101115;-75
2024/01/06 04:37:24;;;;;;;59.72;26.35;;;;;;;7.01;70.41;100376.25;5014223;27;97667;-75
2024/01/06 04:39:51;;;;;;;55.65;25.65;;;;;;;7.05;70.11;100377.88;5014910;27;97194;-75
2024/01/06 04:42:19;;;;;;;55.33;25.45;;;;;;;7.09;69.84;100376.88;5029239;27;98913;-75
2024/01/06 04:44:46;;;;;;;67.85;28.23;;;;;;;7.11;69.91;100380.34;5032363;27;99325;-75
2024/01/06 04:47:12;;;;;;;60.00;26.83;;;;;;;7.22;69.40;100378.25;5024301;27;97549;-75
2024/01/06 04:49:38;;;;;;;60.92;27.45;;;;;;;7.13;69.37;100376.78;5019576;27;97130;-74
2024/01/06 04:52:05;;;;;;;55.50;25.77;;;;;;;7.14;70.14;100375.00;5021749;27;97613;-74
2024/01/06 04:54:31;;;;;;;62.63;27.63;;;;;;;7.12;69.71;100379.44;5029415;27;101950;-73
2024/01/06 04:57:00;;;;;;;63.67;27.98;;;;;;;7.37;68.98;100382.25;5029170;27;96758;-73
2024/01/06 04:59:26;;;;;;;64.07;27.23;;;;;;;7.02;69.45;100396.38;5026521;27;97897;-73
2024/01/06 05:01:54;;;;;;;62.25;26.55;;;;;;;7.31;69.08;100392.94;5032168;27;98999;-75
2024/01/06 05:04:20;;;;;;;59.90;26.77;;;;;;;7.16;68.95;100388.94;5025685;27;100787;-75
2024/01/06 05:06:47;;;;;;;64.75;27.17;;;;;;;7.10;69.62;100391.75;5027704;27;97207;-74
2024/01/06 05:09:13;;;;;;;65.43;25.90;;;;;;;6.80;70.60;100398.69;5023413;27;97124;-74
2024/01/06 05:11:40;;;;;;;64.90;27.88;;;;;;;6.74;71.29;100402.31;5037505;27;98868;-73
2024/01/06 05:14:07;;;;;;;60.28;26.65;;;;;;;6.65;71.61;100401.69;5030869;27;99854;-73
2024/01/06 05:16:33;;;;;;;69.78;28.02;;;;;;;6.84;71.28;100402.06;5033858;27;96881;-73
2024/01/06 05:19:00;;;;;;;67.93;29.48;;;;;;;6.92;71.63;100402.75;5029118;27;97730;-73
2024/01/06 05:21:27;;;;;;;66.28;27.67;;;;;;;6.95;70.96;100403.53;5031070;27;98925;-73
2024/01/06 05:23:53;;;;;;;68.20;28.45;;;;;;;7.05;71.00;100406.78;5028127;27;101532;-74
2024/01/06 05:26:19;;;;;;;68.97;28.35;;;;;;;6.95;70.71;100413.19;5027341;27;97163;-73
2024/01/06 05:28:47;;;;;;;66.25;27.73;;;;;;;6.85;71.41;100409.91;5028998;27;97472;-74
2024/01/06 05:31:14;;;;;;;66.07;29.60;;;;;;;7.01;70.25;100406.00;5022230;27;100043;-74
2024/01/06 05:33:41;;;;;;;70.95;28.42;;;;;;;7.11;69.90;100411.88;5028262;27;100023;-74
2024/01/06 05:36:08;;;;;;;72.97;28.85;;;;;;;7.11;70.05;100414.50;5020699;27;97668;-73
2024/01/06 05:38:34;;;;;;;71.40;29.30;;;;;;;6.93;69.93;100413.22;5023647;27;96999;-74
2024/01/06 05:41:01;;;;;;;63.45;28.30;;;;;;;6.97;70.08;100416.63;5026746;27;98133;-74
2024/01/06 05:43:27;;;;;;;70.93;28.58;;;;;;;6.83;71.00;100414.34;5021767;27;97632;-74
2024/01/06 05:45:57;;;;;;;69.35;28.85;;;;;;;7.04;70.42;100421.69;5026556;27;101973;-75
2024/01/06 05:48:24;;;;;;;69.22;28.60;;;;;;;6.96;70.75;100430.66;5029415;27;97484;-75
2024/01/06 05:50:51;;;;;;;67.10;29.65;;;;;;;6.95;70.11;100436.81;5028572;27;99369;-74
2024/01/06 05:53:18;;;;;;;74.72;29.77;;;;;;;7.00;70.35;100440.19;5023749;27;99314;-74
2024/01/06 05:55:44;;;;;;;62.63;27.80;;;;;;;6.77;70.11;100439.00;5028836;27;97769;-75
2024/01/06 05:58:11;;;;;;;67.93;30.25;;;;;;;6.80;70.77;100449.44;5027111;27;96751;-75
2024/01/06 06:00:37;;;;;;;65.00;29.45;;;;;;;6.91;70.60;100443.03;5017834;27;100742;-75
2024/01/06 06:03:04;;;;;;;69.78;30.52;;;;;;;6.96;70.62;100452.53;5016790;27;102203;-75
2024/01/06 06:05:32;;;;;;;68.90;29.25;;;;;;;6.95;70.06;100449.97;5026735;27;96698;-75
2024/01/06 06:07:58;;;;;;;65.18;29.48;;;;;;;7.12;69.87;100448.63;5021890;27;98549;-75
2024/01/06 06:10:29;;;;;;;68.50;30.02;;;;;;;6.94;70.13;100454.34;5027379;27;99866;-75
2024/01/06 06:12:56;;;;;;;69.85;28.92;;;;;;;6.76;70.35;100467.94;5020226;27;101016;-75
2024/01/06 06:15:22;;;;;;;70.70;31.17;;;;;;;6.81;70.49;100466.06;5021605;27;97279;-75
2024/01/06 06:17:48;;;;;;;70.78;29.70;;;;;;;6.82;70.81;100480.94;5015949;27;97002;-75
2024/01/06 06:20:15;;;;;;;75.28;29.33;;;;;;;6.86;70.56;100485.19;5020288;27;98893;-74
2024/01/06 06:22:46;;;;;;;68.72;28.35;;;;;;;6.69;70.98;100495.25;5015000;27;99122;-75
2024/01/06 06:25:12;;;;;;;68.07;27.02;;;;;;;6.77;70.98;100493.28;5023664;27;96941;-75
2024/01/06 06:27:39;;;;;;;72.20;28.73;;;;;;;6.80;70.80;100504.59;5022155;27;96784;-75
2024/01/06 06:30:08;;;;;;;73.18;28.35;;;;;;;6.70;70.54;100510.06;5023624;27;99324;-76
2024/01/06 06:32:34;;;;;;;69.68;29.45;;;;;;;6.56;71.18;100504.31;5023388;27;99215;-75
2024/01/06 06:35:01;;;;;;;74.07;29.52;;;;;;;6.52;71.77;100511.38;5025562;27;96812;-76
2024/01/06 06:37:27;;;;;;;66.22;28.10;;;;;;;6.66;71.72;100518.94;5021277;27;96940;-75
2024/01/06 06:39:55;;;;;;;75.07;29.60;;;;;;;6.57;71.59;100519.13;5026522;27;99142;-75
2024/01/06 06:42:22;;;;;;;70.15;27.90;;;;;;;6.60;71.94;100511.19;5023296;27;98010;-75
2024/01/06 06:44:48;;;;;;;66.50;28.33;;;;;;;6.80;70.98;100517.72;5019767;27;96751;-75
2024/01/06 06:47:14;;;;;;;63.80;26.98;;;;;;;6.77;70.88;100527.41;5017550;27;96997;-75
2024/01/06 06:49:41;;;;;;;75.60;28.08;;;;;;;6.75;70.04;100527.47;5022710;27;100597;-75
2024/01/06 06:52:08;;;;;;;75.40;27.60;;;;;;;6.68;70.42;100531.16;5016473;27;98939;-73
2024/01/06 06:54:34;;;;;;;67.50;27.45;;;;;;;6.43;71.25;100544.84;5025341;27;96754;-75
2024/01/06 06:57:03;;;;;;;69.72;28.23;;;;;;;6.52;71.75;100548.13;5021700;27;96849;-75
2024/01/06 06:59:29;;;;;;;71.40;26.60;;;;;;;6.47;70.98;100555.25;5017368;27;98877;-75
2024/01/06 07:01:55;;;;;;;65.40;27.23;;;;;;;6.22;72.25;100556.66;5020028;27;98835;-75
2024/01/06 07:04:28;;;;;;;68.85;27.08;;;;;;;6.31;71.73;100551.19;5019071;27;97266;-75
2024/01/06 07:06:54;;;;;;;68.32;29.42;;;;;;;6.46;71.53;100564.00;5019593;27;96989;-75
2024/01/06 07:09:23;;;;;;;73.53;27.50;;;;;;;6.41;71.92;100573.75;5024603;27;98156;-75
2024/01/06 07:11:49;;;;;;;71.75;30.33;;;;;;;6.51;71.59;100577.03;5027503;27;99176;-75
2024/01/06 07:14:17;;;;;;;71.95;29.13;;;;;;;6.46;71.66;100579.75;5015192;27;96797;-75
2024/01/06 07:16:43;;;;;;;68.75;27.17;;;;;;;6.56;71.13;100578.69;5021914;27;96875;-75
2024/01/06 07:19:13;;;;;;;61.83;26.17;;;;;;;6.44;71.45;100572.81;5020983;27;99056;-77
2024/01/06 07:21:40;;;;;;;69.38;27.77;;;;;;;6.49;71.30;100579.72;5019511;27;98742;-74
2024/01/06 07:24:06;;;;;;;66.85;27.50;;;;;;;6.32;71.39;100582.66;5016189;27;97028;-74
2024/01/06 07:26:33;;;;;;;72.55;28.25;;;;;;;6.31;71.91;100591.44;5019232;27;97517;-76
2024/01/06 07:28:59;;;;;;;75.10;28.33;;;;;;;6.40;71.69;100587.75;5025766;27;98902;-75
2024/01/06 07:31:27;;;;;;;65.85;28.08;;;;;;;6.36;71.13;100589.59;5021248;27;98754;-74
2024/01/06 07:33:53;;;;;;;70.90;28.55;;;;;;;6.24;71.92;100604.69;5020156;27;96897;-74
2024/01/06 07:36:21;;;;;;;71.07;28.63;;;;;;;5.95;72.47;100605.28;5022961;27;96739;-73
2024/01/06 07:38:47;;;;;;;71.47;29.52;;;;;;;6.11;73.12;100613.72;5024931;27;98880;-76
2024/01/06 07:41:14;;;;;;;62.55;27.67;;;;;;;6.19;72.39;100614.44;5020981;27;99214;-75
2024/01/06 07:43:40;;;;;;;74.78;29.35;;;;;;;6.21;72.22;100617.91;5015513;27;97710;-75
2024/01/06 07:46:09;;;;;;;73.18;28.67;;;;;;;6.27;72.08;100617.78;5027960;27;97167;-75
2024/01/06 07:48:36;;;;;;;75.13;29.45;;;;;;;6.33;71.91;100615.91;5021431;27;99095;-74
2024/01/06 07:51:03;;;;;;;72.10;27.60;;;;;;;6.37;71.90;100616.69;5025176;27;98749;-74
2024/01/06 07:53:30;;;;;;;70.25;29.90;;;;;;;6.10;71.92;100628.63;5019214;27;98703;-75
2024/01/06 07:55:59;;;;;;;65.80;27.02;;;;;;;6.11;71.90;100634.69;5026552;27;96851;-74
2024/01/06 07:58:25;;;;;;;66.70;29.67;;;;;;;6.17;72.13;100634.59;5025970;27;101024;-73
2024/01/06 08:00:52;;;;;;;76.72;29.10;;;;;;;6.08;72.90;100632.16;5021406;27;98784;-75
2024/01/06 08:03:18;;;;;;;79.65;29.98;;;;;;;6.27;72.72;100644.03;5016532;27;96884;-74
2024/01/06 08:05:46;;;;;;;79.85;29.70;;;;;;;6.24;71.62;100644.06;5015633;27;97098;-76
2024/01/06 08:08:16;;;;;;;76.68;29.25;;;;;;;6.46;71.29;100645.38;5022318;27;98167;-75
2024/01/06 08:10:43;;;;;;;82.75;31.17;;;;;;;6.47;71.18;100655.00;5024540;27;100129;-76
2024/01/06 08:13:10;;;;;;;81.95;30.50;;;;;;;6.48;70.68;100661.09;5018095;27;97329;-76
2024/01/06 08:15:36;;;;;;;72.10;29.45;;;;;;;6.36;71.03;100672.72;5023711;27;99189;-76
2024/01/06 08:18:03;;;;;;;78.47;29.85;;;;;;;6.55;70.62;100668.84;5013871;27;100652;-75
2024/01/06 08:20:30;;;;;;;76.03;28.42;;;;;;;6.38;70.77;100673.53;5018428;27;98755;-77
2024/01/06 08:22:57;;;;;;;77.45;29.33;;;;;;;6.40;71.20;100677.88;5026461;27;96783;-75
2024/01/06 08:25:24;;;;;;;73.97;28.77;;;;;;;6.41;70.89;100676.13;5021832;27;97799;-75
2024/01/06 08:27:50;;;;;;;73.55;27.42;;;;;;;6.26;71.18;100681.66;5020698;27;100986;-76
2024/01/06 08:30:17;;;;;;;74.93;28.48;;;;;;;6.46;70.76;100679.50;5010640;27;99171;-76
2024/01/06 08:32:43;;;;;;;76.07;28.27;;;;;;;6.46;70.65;100678.63;5020867;27;98024;-75
2024/01/06 08:35:10;;;;;;;70.07;29.63;;;;;;;6.38;70.52;100686.66;5015842;27;98290;-76
2024/01/06 08:37:36;;;;;;;84.10;29.65;;;;;;;6.63;69.60;100693.16;5021816;27;99285;-75
2024/01/06 08:40:06;;;;;;;72.85;29.58;;;;;;;6.47;70.00;100691.75;5012399;27;98569;-77
2024/01/06 08:42:34;;;;;;;77.68;30.20;;;;;;;6.43;69.87;100697.09;5021924;27;97209;-76
2024/01/06 08:45:02;;;;;;;77.63;29.73;;;;;;;6.25;70.75;100708.78;5018718;27;97318;-75
2024/01/06 08:47:29;;;;;;;71.35;28.63;;;;;;;6.19;70.40;100714.13;5024420;27;100430;-74
2024/01/06 08:49:55;;;;;;;67.25;27.85;;;;;;;6.48;70.06;100721.47;5025362;27;97665;-76
2024/01/06 08:52:22;;;;;;;73.13;27.88;;;;;;;6.42;69.69;100711.97;5025277;27;96832;-76
2024/01/06 08:54:49;;;;;;;62.13;27.05;;;;;;;6.23;69.87;100714.06;5023168;27;96765;-75
2024/01/06 08:57:17;;;;;;;72.75;27.55;;;;;;;6.35;70.01;100719.09;5026548;27;99684;-75
2024/01/06 08:59:45;;;;;;;66.15;27.45;;;;;;;6.38;69.84;100728.66;5020725;27;99106;-75
2024/01/06 09:02:11;;;;;;;73.47;28.55;;;;;;;6.23;70.30;100731.56;5023217;27;96816;-75
2024/01/06 09:04:38;;;;;;;73.60;30.17;;;;;;;6.30;69.78;100731.41;5024225;27;97034;-76
2024/01/06 09:07:05;;;;;;;73.22;29.48;;;;;;;6.20;70.13;100736.84;5019994;27;98869;-76
2024/01/06 09:09:32;;;;;;;63.65;27.33;;;;;;;6.13;69.54;100746.59;5023149;27;98119;-74
2024/01/06 09:11:59;;;;;;;68.13;27.27;;;;;;;5.91;70.24;100753.94;5018731;27;98991;-75
2024/01/06 09:14:27;;;;;;;67.35;28.05;;;;;;;6.18;70.00;100752.63;5023978;27;96724;-75
2024/01/06 09:16:53;;;;;;;69.35;28.65;;;;;;;6.09;69.79;100751.94;5023589;27;102216;-75
2024/01/06 09:19:20;;;;;;;63.72;25.77;;;;;;;5.93;70.03;100759.19;5016162;27;98773;-75
2024/01/06 09:21:46;;;;;;;65.63;26.30;;;;;;;5.89;70.64;100761.00;5024136;27;100610;-76
2024/01/06 09:24:13;;;;;;;65.95;26.13;;;;;;;6.03;69.63;100763.41;5026858;27;96775;-75
2024/01/06 09:26:39;;;;;;;69.15;27.52;;;;;;;5.83;70.14;100768.94;5026685;27;98835;-75
2024/01/06 09:29:06;;;;;;;68.68;28.10;;;;;;;5.95;70.04;100767.91;5029125;27;97890;-75
2024/01/06 09:31:33;;;;;;;66.05;27.80;;;;;;;6.09;69.79;100775.53;5027468;27;97118;-75
2024/01/06 09:34:02;;;;;;;73.28;29.13;;;;;;;6.19;69.10;100777.09;5030844;27;97292;-75
2024/01/06 09:36:28;;;;;;;71.13;28.27;;;;;;;6.02;69.43;100785.28;5020925;27;99561;-74
2024/01/06 09:38:55;;;;;;;67.60;26.95;;;;;;;6.06;69.06;100789.56;5019967;27;99131;-74
2024/01/06 09:41:21;;;;;;;68.82;27.92;;;;;;;6.10;69.54;100786.03;5015813;27;96678;-76
2024/01/06 09:43:48;;;;;;;64.63;26.75;;;;;;;6.18;69.64;100793.75;5020707;27;96942;-75
2024/01/06 09:46:22;;;;;;;64.80;27.13;;;;;;;6.02;69.64;100781.78;5028210;27;99037;-75
2024/01/06 09:48:53;;;;;;;62.08;26.70;;;;;;;6.25;69.07;100784.88;5023279;27;101004;-75
2024/01/06 09:51:20;;;;;;;62.80;26.25;;;;;;;6.29;68.32;100790.06;5024638;27;96851;-75
2024/01/06 09:53:50;;;;;;;68.10;26.25;;;;;;;6.43;69.16;100792.44;5025974;27;97919;-76
2024/01/06 09:56:18;;;;;;;65.72;25.33;;;;;;;5.94;69.13;100800.25;5021568;27;97827;-75
2024/01/06 09:58:45;;;;;;;61.80;25.35;;;;;;;6.05;69.38;100807.94;5013709;27;97668;-75
2024/01/06 10:01:12;;;;;;;64.03;25.45;;;;;;;5.91;69.35;100810.78;5022480;27;97156;-75
2024/01/06 10:03:38;;;;;;;66.65;27.88;;;;;;;5.96;69.87;100803.72;5027285;27;97269;-76
2024/01/06 10:06:09;;;;;;;64.53;26.05;;;;;;;6.26;69.20;100810.22;5026909;27;99314;-75
2024/01/06 10:08:36;;;;;;;60.72;26.85;;;;;;;6.19;68.57;100812.09;5027492;27;99385;-74
2024/01/06 10:11:03;;;;;;;64.60;27.80;;;;;;;5.93;68.60;100807.25;5028543;27;97383;-75
2024/01/06 10:13:29;;;;;;;63.70;27.10;;;;;;;6.40;68.36;100816.09;5029217;27;96777;-75
2024/01/06 10:15:56;;;;;;;63.95;27.27;;;;;;;6.60;66.90;100821.00;5023967;27;99062;-76
2024/01/06 10:18:22;;;;;;;67.85;28.95;;;;;;;6.17;67.57;100818.28;5028642;27;97579;-75
2024/01/06 10:20:50;;;;;;;58.72;26.08;;;;;;;6.02;67.88;100821.13;5017710;27;96800;-75
2024/01/06 10:23:18;;;;;;;66.20;27.80;;;;;;;5.99;68.65;100819.41;5028703;27;97021;-75
2024/01/06 10:25:45;;;;;;;68.88;28.33;;;;;;;6.15;68.66;100825.28;5020428;27;98821;-75
2024/01/06 10:28:13;;;;;;;57.72;26.23;;;;;;;6.19;68.24;100821.72;5021465;27;99009;-74
2024/01/06 10:30:39;;;;;;;59.50;26.90;;;;;;;6.11;68.72;100810.47;5028466;27;96788;-76
2024/01/06 10:33:10;;;;;;;60.75;27.73;;;;;;;6.37;67.57;100813.53;5018432;27;99349;-76
2024/01/06 10:35:37;;;;;;;55.47;27.00;;;;;;;6.37;66.91;100806.50;5025514;27;99052;-76
2024/01/06 10:38:05;;;;;;;57.80;25.10;;;;;;;6.38;66.45;100824.00;5026052;27;98251;-76
2024/01/06 10:40:33;;;;;;;55.25;24.90;;;;;;;6.33;66.38;100822.34;5024851;27;96743;-76
2024/01/06 10:43:01;;;;;;;54.90;24.35;;;;;;;6.01;67.73;100825.50;5027557;27;96772;-76
2024/01/06 10:45:29;;;;;;;61.05;24.80;;;;;;;6.04;68.12;100829.84;5028098;27;98882;-76
2024/01/06 10:47:56;;;;;;;54.05;24.75;;;;;;;6.26;67.16;100828.59;5028832;27;99585;-76
2024/01/06 10:50:24;;;;;;;52.47;24.98;;;;;;;6.35;66.38;100828.44;5026899;27;97176;-75
2024/01/06 10:52:52;;;;;;;60.33;25.70;;;;;;;6.21;67.14;100826.06;5027595;27;97213;-77
2024/01/06 10:55:20;;;;;;;69.22;27.05;;;;;;;6.30;66.76;100822.41;5022276;27;97888;-76
2024/01/06 10:57:51;;;;;;;58.47;26.00;;;;;;;6.18;67.34;100825.22;5027249;27;98040;-76
2024/01/06 11:00:18;;;;;;;58.72;25.88;;;;;;;6.31;66.57;100818.88;5026053;27;97274;-76
2024/01/06 11:02:46;;;;;;;52.10;24.90;;;;;;;6.32;66.26;100825.88;5022290;27;97171;-77
2024/01/06 11:05:14;;;;;;;55.08;24.48;;;;;;;6.10;66.19;100833.25;5028385;27;100111;-76
2024/01/06 11:07:41;;;;;;;56.53;25.33;;;;;;;6.18;66.43;100835.72;5026039;27;98862;-75
2024/01/06 11:10:15;;;;;;;54.95;25.35;;;;;;;6.16;66.44;100830.53;5027772;27;96785;-72
2024/01/06 11:12:42;;;;;;;54.50;24.98;;;;;;;6.11;66.96;100828.84;5024794;27;97224;-72
2024/01/06 11:15:10;;;;;;;50.53;25.27;;;;;;;5.91;67.65;100832.63;5030213;27;101672;-72